createdAt,value
2018-04-30T00:00:27.907Z,5.60
2018-04-30T00:02:57.173Z,4.87
2018-04-30T00:05:26.455Z,4.97
2018-04-30T00:07:57.042Z,5.37
2018-04-30T00:10:27.152Z,5.03
2018-04-30T00:12:57.193Z,4.93
2018-04-30T00:15:26.455Z,4.43
2018-04-30T00:17:55.888Z,3.90
2018-04-30T00:20:25.918Z,3.83
2018-04-30T00:22:55.189Z,3.20
2018-04-30T00:25:25.967Z,2.57
2018-04-30T00:27:55.246Z,2.57
2018-04-30T00:30:25.276Z,2.43
2018-04-30T00:32:54.655Z,2.00
2018-04-30T00:35:24.710Z,1.80
2018-04-30T00:37:53.966Z,1.50
2018-04-30T00:40:24.016Z,1.60
2018-04-30T00:42:53.294Z,1.97
2018-04-30T00:45:23.352Z,1.87
2018-04-30T00:47:52.608Z,1.60
2018-04-30T00:50:22.670Z,2.37
2018-04-30T00:52:51.942Z,2.00
2018-04-30T00:55:21.341Z,1.60
2018-04-30T00:57:51.367Z,2.03
2018-04-30T01:00:20.732Z,3.37
2018-04-30T01:02:49.989Z,1.60
2018-04-30T01:05:19.279Z,2.07
2018-04-30T01:07:48.677Z,1.97
2018-04-30T01:10:18.002Z,2.10
2018-04-30T01:12:47.257Z,2.23
2018-04-30T01:15:17.285Z,2.30
2018-04-30T01:17:46.554Z,2.50
2018-04-30T01:20:15.824Z,2.53
2018-04-30T01:22:45.094Z,2.60
2018-04-30T01:25:14.356Z,2.40
2018-04-30T01:27:44.385Z,2.10
2018-04-30T01:30:18.883Z,2.80
2018-04-30T01:32:48.166Z,2.57
2018-04-30T01:35:17.427Z,2.40
2018-04-30T01:37:46.706Z,2.13
2018-04-30T01:40:16.727Z,2.47
2018-04-30T01:42:46.777Z,2.60
2018-04-30T01:45:16.030Z,2.10
2018-04-30T01:47:45.301Z,2.60
2018-04-30T01:50:14.560Z,2.27
2018-04-30T01:52:43.827Z,1.93
2018-04-30T01:55:14.603Z,2.03
2018-04-30T01:57:43.903Z,2.03
2018-04-30T02:00:13.907Z,1.83
2018-04-30T02:02:43.945Z,2.20
2018-04-30T02:05:13.423Z,1.47
2018-04-30T02:07:43.461Z,1.77
2018-04-30T02:10:12.729Z,2.03
2018-04-30T02:12:41.980Z,1.50
2018-04-30T02:15:11.243Z,1.30
2018-04-30T02:17:40.518Z,1.20
2018-04-30T02:20:10.548Z,1.23
2018-04-30T02:22:40.602Z,1.33
2018-04-30T02:25:09.889Z,1.30
2018-04-30T02:27:39.145Z,1.43
2018-04-30T02:30:08.510Z,1.00
2018-04-30T02:32:37.775Z,1.03
2018-04-30T02:35:07.814Z,1.00
2018-04-30T02:37:37.077Z,1.10
2018-04-30T02:40:07.116Z,0.80
2018-04-30T02:42:37.153Z,1.10
2018-04-30T02:45:06.448Z,1.23
2018-04-30T02:47:35.727Z,1.30
2018-04-30T02:50:05.744Z,1.80
2018-04-30T02:52:35.033Z,1.83
2018-04-30T02:55:05.066Z,1.47
2018-04-30T02:57:35.105Z,1.50
2018-04-30T03:00:04.699Z,2.27
2018-04-30T03:02:33.955Z,2.10
2018-04-30T03:05:03.231Z,2.00
2018-04-30T03:07:32.481Z,1.40
2018-04-30T03:10:02.508Z,1.10
2018-04-30T03:12:32.542Z,1.20
2018-04-30T03:15:01.800Z,1.27
2018-04-30T03:17:31.068Z,1.03
2018-04-30T03:20:00.347Z,0.60
2018-04-30T03:22:29.615Z,0.90
2018-04-30T03:24:59.657Z,0.80
2018-04-30T03:27:28.917Z,0.70
2018-04-30T03:29:58.959Z,0.70
2018-04-30T03:32:28.984Z,0.70
2018-04-30T03:34:58.248Z,0.60
2018-04-30T03:37:27.530Z,0.60
2018-04-30T03:39:56.779Z,0.67
2018-04-30T03:42:26.053Z,0.50
2018-04-30T03:44:55.341Z,0.77
2018-04-30T03:47:24.598Z,0.60
2018-04-30T03:49:53.876Z,0.73
2018-04-30T03:52:23.913Z,0.60
2018-04-30T03:54:53.172Z,0.60
2018-04-30T03:57:23.214Z,0.70
2018-04-30T03:59:52.489Z,0.60
2018-04-30T04:02:40.368Z,0.70
2018-04-30T04:05:27.600Z,0.60
2018-04-30T04:07:56.872Z,0.60
2018-04-30T04:10:26.904Z,0.60
2018-04-30T04:12:56.194Z,0.60
2018-04-30T04:15:25.487Z,0.67
2018-04-30T04:17:55.519Z,0.70
2018-04-30T04:20:24.807Z,0.50
2018-04-30T04:22:54.825Z,0.50
2018-04-30T04:25:24.138Z,0.60
2018-04-30T04:27:53.396Z,0.70
2018-04-30T04:30:23.587Z,0.50
2018-04-30T04:32:52.846Z,0.73
2018-04-30T04:35:22.119Z,0.70
2018-04-30T04:37:52.174Z,0.60
2018-04-30T04:40:22.261Z,0.70
2018-04-30T04:42:52.295Z,0.50
2018-04-30T04:45:22.314Z,0.60
2018-04-30T04:47:51.615Z,0.70
2018-04-30T04:50:21.690Z,0.60
2018-04-30T04:52:50.961Z,0.60
2018-04-30T04:55:20.391Z,0.70
2018-04-30T04:57:49.678Z,0.60
2018-04-30T05:00:18.976Z,0.60
2018-04-30T05:02:48.223Z,0.60
2018-04-30T05:05:18.268Z,0.73
2018-04-30T05:07:49.203Z,0.80
2018-04-30T05:10:18.881Z,0.70
2018-04-30T05:12:48.976Z,0.70
2018-04-30T05:15:18.309Z,0.60
2018-04-30T05:17:48.380Z,0.83
2018-04-30T05:20:17.676Z,0.73
2018-04-30T05:22:47.013Z,0.80
2018-04-30T05:25:17.796Z,0.80
2018-04-30T05:27:47.053Z,0.80
2018-04-30T05:30:18.733Z,0.70
2018-04-30T05:32:47.995Z,0.60
2018-04-30T05:35:17.289Z,0.80
2018-04-30T05:37:46.582Z,0.63
2018-04-30T05:40:19.792Z,1.00
2018-04-30T05:42:49.098Z,0.50
2018-04-30T05:45:20.001Z,0.60
2018-04-30T05:47:49.271Z,1.43
2018-04-30T05:50:18.537Z,0.73
2018-04-30T05:52:47.832Z,1.03
2018-04-30T05:55:17.203Z,0.77
2018-04-30T05:57:46.362Z,1.07
2018-04-30T06:00:15.819Z,1.40
2018-04-30T06:02:45.157Z,1.10
2018-04-30T06:05:14.411Z,0.80
2018-04-30T06:07:47.883Z,0.80
2018-04-30T06:10:17.159Z,0.90
2018-04-30T06:12:47.247Z,0.70
2018-04-30T06:15:16.531Z,1.07
2018-04-30T06:17:45.782Z,0.90
2018-04-30T06:20:15.897Z,0.70
2018-04-30T06:22:45.961Z,0.90
2018-04-30T06:25:15.249Z,0.70
2018-04-30T06:27:44.474Z,0.60
2018-04-30T06:30:13.780Z,0.97
2018-04-30T06:32:43.054Z,0.70
2018-04-30T06:35:12.334Z,0.80
2018-04-30T06:37:41.659Z,1.13
2018-04-30T06:40:10.950Z,0.80
2018-04-30T06:42:40.188Z,0.90
2018-04-30T06:45:10.680Z,0.90
2018-04-30T06:47:39.976Z,0.70
2018-04-30T06:50:10.073Z,1.00
2018-04-30T06:52:39.336Z,0.90
2018-04-30T06:55:08.608Z,1.20
2018-04-30T06:57:37.865Z,0.87
2018-04-30T07:00:07.190Z,1.27
2018-04-30T07:02:36.470Z,0.80
2018-04-30T07:05:06.503Z,0.80
2018-04-30T07:07:35.777Z,0.90
2018-04-30T07:10:05.813Z,0.90
2018-04-30T07:12:35.069Z,0.90
2018-04-30T07:15:05.874Z,0.70
2018-04-30T07:17:35.129Z,1.00
2018-04-30T07:20:05.302Z,1.07
2018-04-30T07:22:34.545Z,0.87
2018-04-30T07:25:04.768Z,0.87
2018-04-30T07:27:34.864Z,1.00
2018-04-30T07:30:04.084Z,0.60
2018-04-30T07:32:34.140Z,0.80
2018-04-30T07:35:03.413Z,0.60
2018-04-30T07:37:32.684Z,0.80
2018-04-30T07:40:01.965Z,0.90
2018-04-30T07:42:31.223Z,0.87
2018-04-30T07:45:00.480Z,0.80
2018-04-30T07:47:29.748Z,0.87
2018-04-30T07:49:59.072Z,0.90
2018-04-30T07:52:28.277Z,0.90
2018-04-30T07:54:57.553Z,1.00
2018-04-30T07:57:26.878Z,0.80
2018-04-30T07:59:56.174Z,0.70
2018-04-30T08:02:25.438Z,0.90
2018-04-30T08:04:54.723Z,0.90
2018-04-30T08:07:23.999Z,0.70
2018-04-30T08:09:54.050Z,0.67
2018-04-30T08:12:23.344Z,1.00
2018-04-30T08:14:52.835Z,0.90
2018-04-30T08:17:22.008Z,0.90
2018-04-30T08:19:52.068Z,0.60
2018-04-30T08:22:21.323Z,0.60
2018-04-30T08:24:50.593Z,0.70
2018-04-30T08:27:19.864Z,0.97
2018-04-30T08:29:49.127Z,0.83
2018-04-30T08:32:18.383Z,0.60
2018-04-30T08:34:47.671Z,0.50
2018-04-30T08:37:16.946Z,0.80
2018-04-30T08:39:46.978Z,0.80
2018-04-30T08:42:16.256Z,0.63
2018-04-30T08:44:45.524Z,0.80
2018-04-30T08:47:14.840Z,0.60
2018-04-30T08:49:44.074Z,0.60
2018-04-30T08:52:13.423Z,0.77
2018-04-30T08:54:43.388Z,0.77
2018-04-30T08:57:12.644Z,0.70
2018-04-30T08:59:43.456Z,0.60
2018-04-30T09:02:12.717Z,0.60
2018-04-30T09:04:42.766Z,0.70
2018-04-30T09:07:12.034Z,0.80
2018-04-30T09:09:42.345Z,0.60
2018-04-30T09:12:11.614Z,0.70
2018-04-30T09:14:40.922Z,0.80
2018-04-30T09:17:10.184Z,0.77
2018-04-30T09:19:39.464Z,0.90
2018-04-30T09:22:09.491Z,1.13
2018-04-30T09:24:38.774Z,0.67
2018-04-30T09:27:08.869Z,0.50
2018-04-30T09:29:39.010Z,0.83
2018-04-30T09:32:09.058Z,0.60
2018-04-30T09:34:38.379Z,0.53
2018-04-30T09:37:07.653Z,0.70
2018-04-30T09:39:36.925Z,0.87
2018-04-30T09:42:06.951Z,1.07
2018-04-30T09:44:37.060Z,1.33
2018-04-30T09:47:07.091Z,0.80
2018-04-30T09:49:36.349Z,0.73
2018-04-30T09:52:05.631Z,0.60
2018-04-30T09:54:34.879Z,0.90
2018-04-30T09:57:04.924Z,0.90
2018-04-30T09:59:34.217Z,0.80
2018-04-30T10:02:03.480Z,0.70
2018-04-30T10:04:32.762Z,0.80
2018-04-30T10:07:02.052Z,1.10
2018-04-30T10:09:31.298Z,0.70
2018-04-30T10:12:01.374Z,0.70
2018-04-30T10:14:30.623Z,0.80
2018-04-30T10:16:59.904Z,0.80
2018-04-30T10:19:29.945Z,0.60
2018-04-30T10:21:59.239Z,0.80
2018-04-30T10:24:29.281Z,0.70
2018-04-30T10:26:58.593Z,0.73
2018-04-30T10:29:27.888Z,0.73
2018-04-30T10:31:57.241Z,0.77
2018-04-30T10:34:26.540Z,0.70
2018-04-30T10:36:55.817Z,0.80
2018-04-30T10:39:25.121Z,0.63
2018-04-30T10:41:55.175Z,0.60
2018-04-30T10:44:25.200Z,0.67
2018-04-30T10:46:54.522Z,0.50
2018-04-30T10:49:23.822Z,0.93
2018-04-30T10:51:53.121Z,0.70
2018-04-30T10:54:22.372Z,0.50
2018-04-30T10:56:51.729Z,0.73
2018-04-30T10:59:21.090Z,0.60
2018-04-30T11:01:51.134Z,0.80
2018-04-30T11:04:20.401Z,0.70
2018-04-30T11:06:51.162Z,0.70
2018-04-30T11:09:20.427Z,0.60
2018-04-30T11:11:49.681Z,0.87
2018-04-30T11:14:18.980Z,0.90
2018-04-30T11:16:48.259Z,1.00
2018-04-30T11:19:17.565Z,0.77
2018-04-30T11:21:46.845Z,1.00
2018-04-30T11:24:16.889Z,0.60
2018-04-30T11:26:46.149Z,0.50
2018-04-30T11:29:15.562Z,0.70
2018-04-30T11:31:45.580Z,0.63
2018-04-30T11:34:15.609Z,0.80
2018-04-30T11:36:45.637Z,0.60
2018-04-30T11:39:14.907Z,0.70
2018-04-30T11:41:44.948Z,0.70
2018-04-30T11:44:15.004Z,0.80
2018-04-30T11:46:44.281Z,0.90
2018-04-30T11:49:13.556Z,0.50
2018-04-30T11:51:43.588Z,0.50
2018-04-30T11:54:12.857Z,0.50
2018-04-30T11:56:42.140Z,0.60
2018-04-30T11:59:11.413Z,0.70
2018-04-30T12:01:40.704Z,0.83
2018-04-30T12:04:09.982Z,0.60
2018-04-30T12:06:39.997Z,0.80
2018-04-30T12:09:09.309Z,0.70
2018-04-30T12:11:38.584Z,0.60
2018-04-30T12:14:08.612Z,0.60
2018-04-30T12:16:38.026Z,0.50
2018-04-30T12:19:08.094Z,0.60
2018-04-30T12:21:37.374Z,0.80
2018-04-30T12:24:06.629Z,0.80
2018-04-30T12:26:36.701Z,0.60
2018-04-30T12:29:07.709Z,0.80
2018-04-30T12:31:36.980Z,0.70
2018-04-30T12:34:07.006Z,0.60
2018-04-30T12:36:37.032Z,0.73
2018-04-30T12:39:06.307Z,0.63
2018-04-30T12:41:36.333Z,0.60
2018-04-30T12:44:06.365Z,0.87
2018-04-30T12:46:35.667Z,0.80
2018-04-30T12:49:05.713Z,0.70
2018-04-30T12:51:34.979Z,0.90
2018-04-30T12:54:05.036Z,0.83
2018-04-30T12:56:34.320Z,0.60
2018-04-30T12:59:03.600Z,0.60
2018-04-30T13:01:32.871Z,0.80
2018-04-30T13:04:02.133Z,0.60
2018-04-30T13:06:31.401Z,0.70
2018-04-30T13:09:04.454Z,0.70
2018-04-30T13:11:33.688Z,0.70
2018-04-30T13:14:02.977Z,0.70
2018-04-30T13:16:34.249Z,0.60
2018-04-30T13:19:03.517Z,0.67
2018-04-30T13:21:33.604Z,0.60
2018-04-30T13:24:02.873Z,0.60
2018-04-30T13:26:32.158Z,0.70
2018-04-30T13:29:06.010Z,0.80
2018-04-30T13:31:35.281Z,0.60
2018-04-30T13:34:04.598Z,0.80
2018-04-30T13:36:33.862Z,0.83
2018-04-30T13:39:03.141Z,0.87
2018-04-30T13:41:33.155Z,0.90
2018-04-30T13:44:02.430Z,0.50
2018-04-30T13:46:31.721Z,0.70
2018-04-30T13:49:00.987Z,0.53
2018-04-30T13:51:30.256Z,0.73
2018-04-30T13:54:00.549Z,0.60
2018-04-30T13:56:29.904Z,0.90
2018-04-30T13:58:59.251Z,0.67
2018-04-30T14:01:28.500Z,0.80
2018-04-30T14:03:57.806Z,0.87
2018-04-30T14:06:27.826Z,0.80
2018-04-30T14:08:57.101Z,0.80
2018-04-30T14:11:27.293Z,0.80
2018-04-30T14:13:56.642Z,0.80
2018-04-30T14:16:25.942Z,0.80
2018-04-30T14:18:55.989Z,0.80
2018-04-30T14:21:25.619Z,1.07
2018-04-30T14:23:55.591Z,0.70
2018-04-30T14:26:24.863Z,0.60
2018-04-30T14:28:54.433Z,0.80
2018-04-30T14:31:23.727Z,0.70
2018-04-30T14:33:53.301Z,0.73
2018-04-30T14:36:22.603Z,1.10
2018-04-30T14:38:52.945Z,0.80
2018-04-30T14:41:22.244Z,0.70
2018-04-30T14:43:51.601Z,0.90
2018-04-30T14:46:20.880Z,0.60
2018-04-30T14:48:50.169Z,0.80
2018-04-30T14:51:19.482Z,0.70
2018-04-30T14:53:48.751Z,0.73
2018-04-30T14:56:18.034Z,0.60
2018-04-30T14:58:47.310Z,1.00
2018-04-30T15:01:17.389Z,0.80
2018-04-30T15:03:46.656Z,0.70
2018-04-30T15:06:15.927Z,0.60
2018-04-30T15:08:45.976Z,0.70
2018-04-30T15:11:15.250Z,0.57
2018-04-30T15:13:45.358Z,0.60
2018-04-30T15:16:15.407Z,0.60
2018-04-30T15:18:44.709Z,0.60
2018-04-30T15:21:14.739Z,0.60
2018-04-30T15:23:44.033Z,0.73
2018-04-30T15:26:13.383Z,0.70
2018-04-30T15:28:42.645Z,0.77
2018-04-30T15:31:11.907Z,0.80
2018-04-30T15:33:41.191Z,1.00
2018-04-30T15:36:11.248Z,0.50
2018-04-30T15:38:40.541Z,0.80
2018-04-30T15:41:10.784Z,0.60
2018-04-30T15:43:40.071Z,0.80
2018-04-30T15:46:10.092Z,0.90
2018-04-30T15:48:39.452Z,0.67
2018-04-30T15:51:08.951Z,0.70
2018-04-30T15:53:38.246Z,0.73
2018-04-30T15:56:07.546Z,0.70
2018-04-30T15:58:37.026Z,1.00
2018-04-30T16:01:06.457Z,0.50
2018-04-30T16:03:35.805Z,0.50
2018-04-30T16:06:05.115Z,0.50
2018-04-30T16:08:34.380Z,0.97
2018-04-30T16:11:03.911Z,0.83
2018-04-30T16:13:33.363Z,0.90
2018-04-30T16:16:04.585Z,0.70
2018-04-30T16:18:33.958Z,0.70
2018-04-30T16:21:04.493Z,0.70
2018-04-30T16:23:34.657Z,0.60
2018-04-30T16:26:03.901Z,0.90
2018-04-30T16:28:33.248Z,0.50
2018-04-30T16:31:02.585Z,0.87
2018-04-30T16:33:31.869Z,0.80
2018-04-30T16:36:01.179Z,0.90
2018-04-30T16:38:30.756Z,0.63
2018-04-30T16:41:00.043Z,0.73
2018-04-30T16:43:29.530Z,1.00
2018-04-30T16:45:59.027Z,1.10
2018-04-30T16:48:29.228Z,0.90
2018-04-30T16:50:59.897Z,1.00
2018-04-30T16:53:29.929Z,0.70
2018-04-30T16:55:59.205Z,0.90
2018-04-30T16:58:28.564Z,0.70
2018-04-30T17:00:57.820Z,0.83
2018-04-30T17:03:27.121Z,0.60
2018-04-30T17:05:56.396Z,0.97
2018-04-30T17:08:25.677Z,0.80
2018-04-30T17:10:55.720Z,0.77
2018-04-30T17:13:25.087Z,0.70
2018-04-30T17:15:54.394Z,0.60
2018-04-30T17:18:24.549Z,0.90
2018-04-30T17:20:53.851Z,0.80
2018-04-30T17:23:23.180Z,0.60
2018-04-30T17:25:52.550Z,0.77
2018-04-30T17:28:21.823Z,0.77
2018-04-30T17:30:51.856Z,0.60
2018-04-30T17:33:21.898Z,0.60
2018-04-30T17:35:51.177Z,0.80
2018-04-30T17:38:20.477Z,0.70
2018-04-30T17:40:49.755Z,1.20
2018-04-30T17:43:19.794Z,0.90
2018-04-30T17:45:49.046Z,0.60
2018-04-30T17:48:18.356Z,0.80
2018-04-30T17:50:48.137Z,1.10
2018-04-30T17:53:17.408Z,0.80
2018-04-30T17:55:46.687Z,1.10
2018-04-30T17:58:16.731Z,0.97
2018-04-30T18:00:46.005Z,1.23
2018-04-30T18:03:16.099Z,0.80
2018-04-30T18:05:46.034Z,0.87
2018-04-30T18:08:16.094Z,0.90
2018-04-30T18:10:47.472Z,0.73
2018-04-30T18:13:16.775Z,0.80
2018-04-30T18:15:46.166Z,1.00
2018-04-30T18:18:15.481Z,0.83
2018-04-30T18:20:50.595Z,0.70
2018-04-30T18:23:19.859Z,0.90
2018-04-30T18:25:54.922Z,0.83
2018-04-30T18:28:24.163Z,0.90
2018-04-30T18:30:53.430Z,1.10
2018-04-30T18:33:22.798Z,0.90
2018-04-30T18:35:53.845Z,0.90
2018-04-30T18:38:23.120Z,0.80
2018-04-30T18:40:53.159Z,0.80
2018-04-30T18:43:22.459Z,1.00
2018-04-30T18:45:52.460Z,0.90
2018-04-30T18:48:22.479Z,0.90
2018-04-30T18:50:52.507Z,0.90
2018-04-30T18:53:21.813Z,0.80
2018-04-30T18:55:51.106Z,1.00
2018-04-30T18:58:20.378Z,1.03
2018-04-30T19:00:49.857Z,0.80
2018-04-30T19:03:25.985Z,0.80
2018-04-30T19:05:55.242Z,1.20
2018-04-30T19:08:24.492Z,2.97
2018-04-30T19:10:53.780Z,0.80
2018-04-30T19:13:23.812Z,1.20
2018-04-30T19:15:53.091Z,1.13
2018-04-30T19:18:22.443Z,0.87
2018-04-30T19:20:51.737Z,1.03
2018-04-30T19:23:21.039Z,1.03
2018-04-30T19:25:50.348Z,0.90
2018-04-30T19:28:19.640Z,0.93
2018-04-30T19:30:48.911Z,0.90
2018-04-30T19:33:18.207Z,0.80
2018-04-30T19:35:47.535Z,1.37
2018-04-30T19:38:17.165Z,1.00
2018-04-30T19:40:47.686Z,0.90
2018-04-30T19:43:17.030Z,0.90
2018-04-30T19:45:46.357Z,1.20
2018-04-30T19:48:15.641Z,1.03
2018-04-30T19:50:45.022Z,0.90
2018-04-30T19:53:15.069Z,1.00
2018-04-30T19:55:44.380Z,1.07
2018-04-30T19:58:13.643Z,0.60
2018-04-30T20:00:43.687Z,1.00
2018-04-30T20:03:13.907Z,1.07
2018-04-30T20:05:43.181Z,0.93
2018-04-30T20:08:13.275Z,0.80
2018-04-30T20:10:42.552Z,1.20
2018-04-30T20:13:11.820Z,1.10
2018-04-30T20:15:42.072Z,0.90
2018-04-30T20:20:46.897Z,0.90
2018-04-30T20:23:16.311Z,1.00
2018-04-30T20:25:45.592Z,0.80
2018-04-30T20:28:14.889Z,0.60
2018-04-30T20:30:45.008Z,0.90
2018-04-30T20:33:15.040Z,1.80
2018-04-30T20:35:44.289Z,0.90
2018-04-30T20:38:13.575Z,1.10
2018-04-30T20:40:42.851Z,0.90
2018-04-30T20:43:12.143Z,0.90
2018-04-30T20:45:42.221Z,0.80
2018-04-30T20:48:11.522Z,0.90
2018-04-30T20:50:40.801Z,0.97
2018-04-30T20:53:10.111Z,0.70
2018-04-30T20:55:39.405Z,0.93
2018-04-30T20:58:08.710Z,1.00
2018-04-30T21:00:37.972Z,1.03
2018-04-30T21:03:07.260Z,0.90
2018-04-30T21:05:36.536Z,0.90
2018-04-30T21:08:05.842Z,1.00
2018-04-30T21:10:35.234Z,0.90
2018-04-30T21:13:05.300Z,1.07
2018-04-30T21:15:34.634Z,1.00
2018-04-30T21:18:03.976Z,1.03
2018-04-30T21:20:34.027Z,0.90
2018-04-30T21:23:03.312Z,0.80
2018-04-30T21:25:32.660Z,1.20
2018-04-30T21:28:02.005Z,1.20
2018-04-30T21:30:31.480Z,1.30
2018-04-30T21:33:01.622Z,1.00
2018-04-30T21:35:31.636Z,1.10
2018-04-30T21:38:01.725Z,1.33
2018-04-30T21:40:31.408Z,1.23
2018-04-30T21:43:00.772Z,1.13
2018-04-30T21:45:31.081Z,1.23
2018-04-30T21:48:01.140Z,1.97
2018-04-30T21:50:30.496Z,1.20
2018-04-30T21:52:59.776Z,1.03
2018-04-30T21:55:29.058Z,0.97
2018-04-30T21:57:58.393Z,1.03
2018-04-30T22:00:28.540Z,0.90
2018-04-30T22:02:57.733Z,0.90
2018-04-30T22:05:27.011Z,0.97
2018-04-30T22:07:57.048Z,0.90
2018-04-30T22:10:27.093Z,0.97
2018-04-30T22:12:56.959Z,1.13
2018-04-30T22:15:26.992Z,1.00
2018-04-30T22:17:57.051Z,0.83
2018-04-30T22:20:26.297Z,0.70
2018-04-30T22:22:56.322Z,0.73
2018-04-30T22:25:26.375Z,0.70
2018-04-30T22:27:56.653Z,0.90
2018-04-30T22:30:25.954Z,0.70
2018-04-30T22:32:55.302Z,1.13
2018-04-30T22:35:24.621Z,0.83
2018-04-30T22:37:53.969Z,0.70
2018-04-30T22:40:24.015Z,0.90
2018-04-30T22:42:53.277Z,0.63
2018-04-30T22:45:23.300Z,0.93
2018-04-30T22:47:53.362Z,1.10
2018-04-30T22:50:22.632Z,0.70
2018-04-30T22:52:52.439Z,0.70
2018-04-30T22:55:22.441Z,0.63
2018-04-30T22:57:52.582Z,0.80
2018-04-30T23:00:23.405Z,1.00
2018-04-30T23:02:52.843Z,0.50
2018-04-30T23:05:22.134Z,0.70
2018-04-30T23:07:51.480Z,0.60
2018-04-30T23:10:20.924Z,1.07
2018-04-30T23:12:51.028Z,0.60
2018-04-30T23:15:20.269Z,0.80
2018-04-30T23:17:49.583Z,0.70
2018-04-30T23:20:18.862Z,0.80
2018-04-30T23:22:48.152Z,0.60
2018-04-30T23:25:17.479Z,0.60
2018-04-30T23:27:46.761Z,0.70
2018-04-30T23:30:16.012Z,0.70
2018-04-30T23:32:46.785Z,0.90
2018-04-30T23:35:16.060Z,0.70
2018-04-30T23:37:46.080Z,0.70
2018-04-30T23:40:16.252Z,0.97
2018-04-30T23:42:45.505Z,0.60
2018-04-30T23:45:15.812Z,0.70
2018-04-30T23:47:46.555Z,0.60
2018-04-30T23:50:15.852Z,0.67
2018-04-30T23:52:45.119Z,0.70
2018-04-30T23:55:14.386Z,0.63
2018-04-30T23:57:43.696Z,0.90
